WetterOnline ( https://www.wetteronline.de )

Wetter aktuell Bad Marienberg

Aktuelles Wetter: Bad Marienberg (555m)

6-stündlich | Neueste Meldungen
Ortszeit Temperatur Wetter
Fr, 06.08. 2:00 13.0° C wolkig
Do, 05.08. 20:00 16.8° C wolkig
Do, 05.08. 14:00 15.8° C leichter Regen
Do, 05.08. 8:00 14.2° C bedeckt
Do, 05.08. 2:00 13.9° C bedeckt
Mi, 04.08. 20:00 15.2° C bedeckt
Mi, 04.08. 14:00 17.2° C wolkig
Mi, 04.08. 8:00 12.0° C bedeckt
Ortszeit Temperatur Wetter
Fr, 06.08. 3:00 13.4° C Nebel
Fr, 06.08. 2:50 13.4° C Nebel
Fr, 06.08. 2:40 13.4° C Nebel
Fr, 06.08. 2:30 13.2° C Nebel
Fr, 06.08. 2:20 13.2° C Nebel
Fr, 06.08. 2:10 13.2° C bewölkt
Fr, 06.08. 2:00 13.0° C wolkig
Fr, 06.08. 1:30 13.2° C bewölkt
Fr, 06.08. 1:00 13.7° C bewölkt
Fr, 06.08. 0:30 13.5° C leicht bewölkt
Fr, 06.08. 0:00 13.8° C leicht bewölkt
Ortszeit Relative Feuchte Sichtweite
Fr, 06.08. 2:00 100% 14 km
Do, 05.08. 20:00 85% 40 km
Do, 05.08. 14:00 86% 22 km
Do, 05.08. 8:00 83% 35 km
Do, 05.08. 2:00 87% 22 km
Mi, 04.08. 20:00 84% 60 km
Mi, 04.08. 14:00 68% 55 km
Mi, 04.08. 8:00 100% 3.1 km
Ortszeit Relative Feuchte Sichtweite
Fr, 06.08. 3:00 100% 0.3 km
Fr, 06.08. 2:50 100% -
Fr, 06.08. 2:40 100% -
Fr, 06.08. 2:30 100% 0.3 km
Fr, 06.08. 2:20 100% -
Fr, 06.08. 2:10 100% -
Fr, 06.08. 2:00 100% 14 km
Fr, 06.08. 1:30 100% 11 km
Fr, 06.08. 1:00 99% 30 km
Fr, 06.08. 0:30 97% 45 km
Fr, 06.08. 0:00 93% >70 km
Ortszeit Niederschlagsmenge Niederschlagsart
Fr, 06.08. 2:00 0.0 l/m2 in 6 Std. -
Do, 05.08. 20:00 6 l/m2 in 12 Std. Regen
Do, 05.08. 14:00 2 l/m2 in 6 Std. Regen
Do, 05.08. 8:00 0.1 l/m2 in 12 Std. Regen
Do, 05.08. 2:00 0.0 l/m2 in 6 Std. -
Mi, 04.08. 20:00 0.0 l/m2 in 12 Std. -
Mi, 04.08. 14:00 0.0 l/m2 in 6 Std. -
Mi, 04.08. 8:00 0.0 l/m2 in 12 Std. -
Ortszeit Niederschlagsmenge Niederschlagsart
Fr, 06.08. 3:00 0.0 l/m2 in 1 Std. -
Fr, 06.08. 2:50 keine Meldung -
Fr, 06.08. 2:40 keine Meldung -
Fr, 06.08. 2:30 0.0 l/m2 in 1 Std. -
Fr, 06.08. 2:20 keine Meldung -
Fr, 06.08. 2:10 keine Meldung -
Fr, 06.08. 2:00 0.0 l/m2 in 1 Std. -
Fr, 06.08. 1:30 0.0 l/m2 in 1 Std. -
Fr, 06.08. 1:00 0.0 l/m2 in 1 Std. -
Fr, 06.08. 0:30 0.0 l/m2 in 1 Std. -
Fr, 06.08. 0:00 0.0 l/m2 in 1 Std. -
Ortszeit Stärke Spitze Richtung
km/h Bft. km/h Grad Sektor
Fr, 06.08. 2:00 7 2 18 170° S
Do, 05.08. 20:00 4 1 22 140° SO
Do, 05.08. 14:00 6 1 17 310° NW
Do, 05.08. 8:00 0 0 7 - -
Do, 05.08. 2:00 7 2 14 340° N
Mi, 04.08. 20:00 9 2 19 20° N
Mi, 04.08. 14:00 7 2 18 180° S
Mi, 04.08. 8:00 4 1 14 210° SW
Ortszeit Stärke Spitze Richtung
km/h Bft. km/h Grad Sektor
Fr, 06.08. 3:00 9 2 15 170° S
Fr, 06.08. 2:50 9 2 - 170° S
Fr, 06.08. 2:40 7 2 - 170° S
Fr, 06.08. 2:30 9 2 15 170° S
Fr, 06.08. 2:20 9 2 - 170° S
Fr, 06.08. 2:10 9 2 - 170° S
Fr, 06.08. 2:00 7 2 11 170° S
Fr, 06.08. 1:30 9 2 11 170° S
Fr, 06.08. 1:00 7 2 18 170° S
Fr, 06.08. 0:30 7 2 18 200° S
Fr, 06.08. 0:00 9 2 17 190° S
Ortszeit Untergrenze Bedeckung Gattung
total tief tief mittel hoch
Fr, 06.08. 2:00 210 m 6/8 6/8 - - -
Do, 05.08. 20:00 7500 m 8/8 0/8 - - -
Do, 05.08. 14:00 <30 m 8/8 0/8 - - -
Do, 05.08. 8:00 2700 m 8/8 8/8 - - -
Do, 05.08. 2:00 2700 m 8/8 8/8 - - -
Mi, 04.08. 20:00 750 m 8/8 8/8 - - -
Mi, 04.08. 14:00 660 m 6/8 6/8 - - -
Mi, 04.08. 8:00 30 m 8/8 8/8 - - -
Ortszeit Bedeckungsgrad in Achtel und Wolkenuntergrenze
Fr, 06.08. 3:00 8(<30m)
Fr, 06.08. 2:50 8(<30m)
Fr, 06.08. 2:40 7(<30m)
Fr, 06.08. 2:30 4(<30m) 7(150m)
Fr, 06.08. 2:20 4(<30m) 7(150m)
Fr, 06.08. 2:10 6(90m) 7(210m)
Fr, 06.08. 2:00 3(210m) 5(810m) 6(990m)
Fr, 06.08. 1:30 1(<30m) 7(690m)
Fr, 06.08. 1:00 7(180m) 7(300m)
Fr, 06.08. 0:30 1(240m) 3(1800m) 5(3600m)
Fr, 06.08. 0:00 4(1800m) 5(1800m)
Ortszeit Luftdruck NN (hPa) Tendenz (hPa in 3 Std.)
Fr, 06.08. 2:00 1006 - 1,1
Do, 05.08. 20:00 1007 - 1,1
Do, 05.08. 14:00 1009 - 0,7
Do, 05.08. 8:00 1011 - 0,4
Do, 05.08. 2:00 1012 - 0,3
Mi, 04.08. 20:00 1012 - 0,2
Mi, 04.08. 14:00 1013 - 0,6
Mi, 04.08. 8:00 1014 + 0,4
Ortszeit Luftdruck NN (hPa) Tendenz (hPa in 3 Std.)
Fr, 06.08. 3:00 1006 - 1,2
Fr, 06.08. 2:50 1006 keine Meldung
Fr, 06.08. 2:40 1006 keine Meldung
Fr, 06.08. 2:30 1006 - 1,1
Fr, 06.08. 2:20 1006 keine Meldung
Fr, 06.08. 2:10 1006 keine Meldung
Fr, 06.08. 2:00 1006 - 1,1
Fr, 06.08. 1:30 1006 - 1,0
Fr, 06.08. 1:00 1006 - 0,9
Fr, 06.08. 0:30 1007 - 0,4
Fr, 06.08. 0:00 1007 - 0,3
Ortszeit Schneehöhe (cm)
Fr, 06.08. 2:00 -
Do, 05.08. 20:00 -
Do, 05.08. 14:00 -
Do, 05.08. 8:00 -
Do, 05.08. 2:00 -
Mi, 04.08. 20:00 -
Mi, 04.08. 14:00 -
Mi, 04.08. 8:00 -
Ortszeit Schneehöhe (cm)
Fr, 06.08. 3:00 -
Fr, 06.08. 2:50 -
Fr, 06.08. 2:40 -
Fr, 06.08. 2:30 -
Fr, 06.08. 2:20 -
Fr, 06.08. 2:10 -
Fr, 06.08. 2:00 -
Fr, 06.08. 1:30 -
Fr, 06.08. 1:00 -
Fr, 06.08. 0:30 -
Fr, 06.08. 0:00 -
Link zu dieser Seite / Seite empfehlen

Das Wetter in ...